• Join FlightAware (Why Join?)
  • Login
  • US Flag 
01:15AM EST


 

Airport Tracker/Info


-or-


 

Live Flight TrackerFlight Track Log ✈ CFH26 ✈ 20-May-2013 ✈ YBTI / BRT - YPDN / DRW

Flight Track Log - Related Links

Times and Time Zones

All times are in EDT time to prevent confusion due to time zone crossing. See the CFH26 flight status page for this flight to view local times or setup timezone preferences in your user account.

Time Position Orientation Groundspeed Altitude Reporting Facility
EDT Latitude Longitude Course Direction KTS MPH feet Rate Location/Type
07:22AM -11.8000 130.6330 157° South 133 153 2,600  Level FlightAware
07:23AM -11.8170 130.6390 161° South 146 168 3,400 1,800 Climbing FlightAware
07:23AM -11.8260 130.6420 162° South 150 173 3,800 1,920 Climbing FlightAware
07:23AM -11.8430 130.6490 158° South 153 176 4,700 1,380 Climbing FlightAware
07:24AM -11.8660 130.6570 161° South 194 223 5,100 420 Climbing FlightAware
07:24AM -11.8870 130.6660 157° South 212 244 5,100 -180 Level FlightAware
07:25AM -11.9033 130.6731 157° South 203 234 5,000  Descending Aus ATC (RADAR)
07:25AM -11.9160 130.6780 157° South 218 251 5,100  Climbing FlightAware
07:25AM -11.9412 130.6890 157° South 213 245 5,000  Descending Aus ATC (RADAR)
07:25AM -11.9450 130.6900 157° South 221 254 5,100  Climbing FlightAware
07:26AM -11.9647 130.6995 157° South 215 247 5,000  Descending Aus ATC (RADAR)
07:26AM -11.9670 130.7000 157° South 222 255 5,100  Climbing FlightAware
07:26AM -11.9976 130.7149 157° South 216 249 5,000 -240 Descending Aus ATC (RADAR)
07:26AM -11.9960 130.7140 157° South 222 255 5,000 180 Level FlightAware
07:27AM -12.0240 130.7280 154° Southeast 223 257 5,100 60 Climbing FlightAware
07:27AM -12.0470 130.7400 153° Southeast 225 259 5,100  Level FlightAware
07:28AM -12.0760 130.7530 156° South 225 259 5,100  Level FlightAware
07:28AM -12.1050 130.7650 158° South 225 259 5,100  Level FlightAware
07:29AM -12.1300 130.7760 157° South 224 258 5,100  Level FlightAware
07:29AM -12.1570 130.7880 157° South 222 255 5,100 -180 Level FlightAware
07:29AM -12.1776 130.7976 157° South 216 249 5,000  Descending Aus ATC (RADAR)
07:29AM -12.1800 130.7990 157° South 223 257 5,100  Climbing FlightAware
07:30AM -12.2090 130.8120 156° South 223 257 5,000 -480 Descending FlightAware
07:30AM -12.2330 130.8220 158° South 235 270 4,700 -1,140 Descending FlightAware
07:31AM -12.2650 130.8360 157° South 229 264 4,000 -1,380 Descending FlightAware
07:31AM -12.2790 130.8400 164° South 228 262 3,700 -1,200 Descending FlightAware
07:32AM -12.3050 130.8410 178° South 215 247 3,200 -1,140 Descending FlightAware
07:32AM -12.3320 130.8420 178° South 183 211 2,700 -1,260 Descending FlightAware
07:32AM -12.3528 130.8416 178° South 167 192 2,100 -1,200 Descending Aus ATC (RADAR)
07:32AM -12.3510 130.8410 178° South 145 167 2,200 -780 Climbing FlightAware
07:33AM -12.3700 130.8380 189° South 137 158 1,700 -900 Descending FlightAware
07:33AM -12.3880 130.8340 192° South 124 143 1,300 -960 Descending FlightAware
07:34AM -12.4016 130.8413 192° South 106 122 700 -1,080 Descending Aus ATC (RADAR)
07:34AM -12.4020 130.8430 192° South 85 98 600 -600 Descending FlightAware
07:34AM -12.4040 130.8490 109° East 88 101 500 -480 Descending FlightAware
07:35AM -12.4070 130.8590 107° East 93 107 300 -480 Descending FlightAware
07:35AM -12.4110 130.8700 110° East 76 87 100 -420 Descending FlightAware